Deeside, United Kingdom
Current Conditions -  °F | °C
As of 10:20 AM on Saturday 25 Oct 2014 (Local Time) from EGNR Reporting Station
Rain Showers Rain Showers  
Wind Chill: 52°   Ceiling: Unl
Heat Index: 52°   Visibility: 6mi
Dew Point: 48°   Wind: 10mph
Humidity: 88%   Direction: 140°SE
Pressure: 29.94"   Gusts: NA
Location:  53.21°N, 3.04°W
Report Text: EGNR 250920Z 14009KT 9999 VCSH FEW008 SCT020 11/09 Q1014
Loading
Personal Weather Stations






























Interactive Weather Map
Tropical Storm Tracking
New forecast layout! Learn more

10-Day Weather Forecast

Advertisements
Track Severe Weather on mobile